sensor_id;sensor_type;location;lat;lon;timestamp;temperature;humidity
77052;SHT30;65980;44.898;8.602;2023-04-03T00:01:11;12.31;61.59
77052;SHT30;65980;44.898;8.602;2023-04-03T00:04:15;12.17;61.95
77052;SHT30;65980;44.898;8.602;2023-04-03T00:07:20;12.22;62.42
77052;SHT30;65980;44.898;8.602;2023-04-03T00:10:24;12.08;62.46
77052;SHT30;65980;44.898;8.602;2023-04-03T00:13:29;11.76;63.23
77052;SHT30;65980;44.898;8.602;2023-04-03T00:16:33;12.04;63.71
77052;SHT30;65980;44.898;8.602;2023-04-03T00:19:38;12.22;62.59
77052;SHT30;65980;44.898;8.602;2023-04-03T00:22:42;12.42;62.27
77052;SHT30;65980;44.898;8.602;2023-04-03T00:25:46;12.34;62.31
77052;SHT30;65980;44.898;8.602;2023-04-03T00:28:50;12.11;62.26
77052;SHT30;65980;44.898;8.602;2023-04-03T00:31:54;11.98;62.72
77052;SHT30;65980;44.898;8.602;2023-04-03T00:34:58;12.11;62.66
77052;SHT30;65980;44.898;8.602;2023-04-03T00:38:02;12.11;62.56
77052;SHT30;65980;44.898;8.602;2023-04-03T00:41:10;12.08;62.75
77052;SHT30;65980;44.898;8.602;2023-04-03T00:47:27;12.21;62.63
77052;SHT30;65980;44.898;8.602;2023-04-03T00:50:31;12.32;62.04
77052;SHT30;65980;44.898;8.602;2023-04-03T00:53:41;12.35;62.05
77052;SHT30;65980;44.898;8.602;2023-04-03T00:56:47;12.28;61.73
77052;SHT30;65980;44.898;8.602;2023-04-03T00:59:57;12.21;61.98
77052;SHT30;65980;44.898;8.602;2023-04-03T01:03:08;11.87;63.33
77052;SHT30;65980;44.898;8.602;2023-04-03T01:06:14;11.25;65.66
77052;SHT30;65980;44.898;8.602;2023-04-03T01:09:20;11.10;66.33
77052;SHT30;65980;44.898;8.602;2023-04-03T01:12:26;11.40;64.44
77052;SHT30;65980;44.898;8.602;2023-04-03T01:15:30;11.58;64.45
77052;SHT30;65980;44.898;8.602;2023-04-03T01:18:38;11.72;65.17
77052;SHT30;65980;44.898;8.602;2023-04-03T01:24:50;11.34;65.11
77052;SHT30;65980;44.898;8.602;2023-04-03T01:27:59;11.38;65.27
77052;SHT30;65980;44.898;8.602;2023-04-03T01:34:11;11.25;66.01
77052;SHT30;65980;44.898;8.602;2023-04-03T01:37:16;11.24;64.95
77052;SHT30;65980;44.898;8.602;2023-04-03T01:40:20;11.45;65.29
77052;SHT30;65980;44.898;8.602;2023-04-03T01:43:25;11.56;64.78
77052;SHT30;65980;44.898;8.602;2023-04-03T01:46:30;11.48;64.79
77052;SHT30;65980;44.898;8.602;2023-04-03T01:49:34;11.34;66.05
77052;SHT30;65980;44.898;8.602;2023-04-03T01:52:38;11.46;64.98
77052;SHT30;65980;44.898;8.602;2023-04-03T01:55:42;11.56;64.40
77052;SHT30;65980;44.898;8.602;2023-04-03T01:58:47;11.46;63.61
77052;SHT30;65980;44.898;8.602;2023-04-03T02:01:51;10.59;68.11
77052;SHT30;65980;44.898;8.602;2023-04-03T02:04:55;10.89;66.75
77052;SHT30;65980;44.898;8.602;2023-04-03T02:08:00;10.94;66.76
77052;SHT30;65980;44.898;8.602;2023-04-03T02:11:05;10.62;67.67
77052;SHT30;65980;44.898;8.602;2023-04-03T02:14:11;10.66;67.59
77052;SHT30;65980;44.898;8.602;2023-04-03T02:17:16;10.84;67.05
77052;SHT30;65980;44.898;8.602;2023-04-03T02:20:20;10.59;67.93
77052;SHT30;65980;44.898;8.602;2023-04-03T02:23:26;10.63;68.06
77052;SHT30;65980;44.898;8.602;2023-04-03T02:26:31;10.11;70.33
77052;SHT30;65980;44.898;8.602;2023-04-03T02:29:35;10.15;69.93
77052;SHT30;65980;44.898;8.602;2023-04-03T02:32:39;10.58;68.60
77052;SHT30;65980;44.898;8.602;2023-04-03T02:35:44;10.44;67.99
77052;SHT30;65980;44.898;8.602;2023-04-03T02:38:50;10.34;68.72
77052;SHT30;65980;44.898;8.602;2023-04-03T02:41:54;10.41;68.50
77052;SHT30;65980;44.898;8.602;2023-04-03T02:45:01;10.49;67.19
77052;SHT30;65980;44.898;8.602;2023-04-03T02:48:05;10.60;67.78
77052;SHT30;65980;44.898;8.602;2023-04-03T02:51:09;10.46;68.19
77052;SHT30;65980;44.898;8.602;2023-04-03T02:54:13;10.70;66.87
77052;SHT30;65980;44.898;8.602;2023-04-03T02:57:21;10.39;67.87
77052;SHT30;65980;44.898;8.602;2023-04-03T03:00:25;10.55;68.02
77052;SHT30;65980;44.898;8.602;2023-04-03T03:03:30;10.79;67.71
77052;SHT30;65980;44.898;8.602;2023-04-03T03:06:34;10.80;66.59
77052;SHT30;65980;44.898;8.602;2023-04-03T03:09:37;10.76;66.82
77052;SHT30;65980;44.898;8.602;2023-04-03T03:12:42;10.27;68.25
77052;SHT30;65980;44.898;8.602;2023-04-03T03:15:46;10.39;68.26
77052;SHT30;65980;44.898;8.602;2023-04-03T03:18:50;10.63;66.87
77052;SHT30;65980;44.898;8.602;2023-04-03T03:21:55;10.70;66.81
77052;SHT30;65980;44.898;8.602;2023-04-03T03:25:00;10.52;67.14
77052;SHT30;65980;44.898;8.602;2023-04-03T03:28:06;10.50;67.41
77052;SHT30;65980;44.898;8.602;2023-04-03T03:31:10;10.58;66.93
77052;SHT30;65980;44.898;8.602;2023-04-03T03:34:15;10.05;68.44
77052;SHT30;65980;44.898;8.602;2023-04-03T03:37:21;9.89;69.24
77052;SHT30;65980;44.898;8.602;2023-04-03T03:40:24;9.63;69.75
77052;SHT30;65980;44.898;8.602;2023-04-03T03:43:29;9.55;70.56
77052;SHT30;65980;44.898;8.602;2023-04-03T03:46:33;9.72;69.78
77052;SHT30;65980;44.898;8.602;2023-04-03T03:49:37;9.72;70.10
77052;SHT30;65980;44.898;8.602;2023-04-03T03:52:41;10.11;68.85
77052;SHT30;65980;44.898;8.602;2023-04-03T03:55:45;10.10;69.02
77052;SHT30;65980;44.898;8.602;2023-04-03T03:58:49;9.75;69.90
77052;SHT30;65980;44.898;8.602;2023-04-03T04:01:56;9.84;69.29
77052;SHT30;65980;44.898;8.602;2023-04-03T04:05:01;9.94;68.58
77052;SHT30;65980;44.898;8.602;2023-04-03T04:08:05;10.11;68.10
77052;SHT30;65980;44.898;8.602;2023-04-03T04:11:09;10.18;67.71
77052;SHT30;65980;44.898;8.602;2023-04-03T04:14:14;9.93;68.05
77052;SHT30;65980;44.898;8.602;2023-04-03T04:17:21;9.86;68.98
77052;SHT30;65980;44.898;8.602;2023-04-03T04:20:25;9.80;69.01
77052;SHT30;65980;44.898;8.602;2023-04-03T04:23:30;9.80;69.25
77052;SHT30;65980;44.898;8.602;2023-04-03T04:26:36;9.82;68.70
77052;SHT30;65980;44.898;8.602;2023-04-03T04:29:41;9.13;71.91
77052;SHT30;65980;44.898;8.602;2023-04-03T04:32:46;9.36;70.88
77052;SHT30;65980;44.898;8.602;2023-04-03T04:35:50;8.67;72.71
77052;SHT30;65980;44.898;8.602;2023-04-03T04:38:58;8.58;74.51
77052;SHT30;65980;44.898;8.602;2023-04-03T04:42:05;8.63;74.02
77052;SHT30;65980;44.898;8.602;2023-04-03T04:45:10;8.75;73.50
77052;SHT30;65980;44.898;8.602;2023-04-03T04:48:17;8.72;73.53
77052;SHT30;65980;44.898;8.602;2023-04-03T04:51:22;8.52;74.44
77052;SHT30;65980;44.898;8.602;2023-04-03T04:54:27;8.72;73.20
77052;SHT30;65980;44.898;8.602;2023-04-03T04:57:33;9.15;71.86
77052;SHT30;65980;44.898;8.602;2023-04-03T05:00:38;9.31;70.54
77052;SHT30;65980;44.898;8.602;2023-04-03T05:03:43;9.31;70.69
77052;SHT30;65980;44.898;8.602;2023-04-03T05:06:49;9.43;69.76
77052;SHT30;65980;44.898;8.602;2023-04-03T05:09:57;9.17;70.93
77052;SHT30;65980;44.898;8.602;2023-04-03T05:13:01;9.04;69.85
77052;SHT30;65980;44.898;8.602;2023-04-03T05:16:06;9.30;69.64
77052;SHT30;65980;44.898;8.602;2023-04-03T05:19:10;9.34;69.42
77052;SHT30;65980;44.898;8.602;2023-04-03T05:22:17;9.49;68.26
77052;SHT30;65980;44.898;8.602;2023-04-03T05:25:21;9.18;69.70
77052;SHT30;65980;44.898;8.602;2023-04-03T05:28:26;8.79;71.70
77052;SHT30;65980;44.898;8.602;2023-04-03T05:31:34;8.90;72.27
77052;SHT30;65980;44.898;8.602;2023-04-03T05:34:38;9.28;70.80
77052;SHT30;65980;44.898;8.602;2023-04-03T05:37:45;9.20;70.53
77052;SHT30;65980;44.898;8.602;2023-04-03T05:40:50;9.39;69.47
77052;SHT30;65980;44.898;8.602;2023-04-03T05:43:55;9.38;67.82
77052;SHT30;65980;44.898;8.602;2023-04-03T05:47:17;9.52;67.67
77052;SHT30;65980;44.898;8.602;2023-04-03T05:50:23;9.63;68.02
77052;SHT30;65980;44.898;8.602;2023-04-03T05:53:30;9.93;66.62
77052;SHT30;65980;44.898;8.602;2023-04-03T05:56:38;9.95;66.96
77052;SHT30;65980;44.898;8.602;2023-04-03T05:59:43;10.00;66.90
77052;SHT30;65980;44.898;8.602;2023-04-03T06:02:48;9.58;67.42
77052;SHT30;65980;44.898;8.602;2023-04-03T06:05:59;9.24;68.86
77052;SHT30;65980;44.898;8.602;2023-04-03T06:09:39;9.43;68.53
77052;SHT30;65980;44.898;8.602;2023-04-03T06:12:47;9.28;68.81
77052;SHT30;65980;44.898;8.602;2023-04-03T06:15:51;9.36;67.92
77052;SHT30;65980;44.898;8.602;2023-04-03T06:18:58;9.34;68.30
77052;SHT30;65980;44.898;8.602;2023-04-03T06:25:59;9.32;68.22
77052;SHT30;65980;44.898;8.602;2023-04-03T06:29:32;9.32;67.59
77052;SHT30;65980;44.898;8.602;2023-04-03T06:33:40;9.27;67.59
77052;SHT30;65980;44.898;8.602;2023-04-03T06:36:45;9.24;67.69
77052;SHT30;65980;44.898;8.602;2023-04-03T06:39:48;9.42;67.18
77052;SHT30;65980;44.898;8.602;2023-04-03T06:42:52;9.22;67.49
77052;SHT30;65980;44.898;8.602;2023-04-03T06:45:58;9.34;67.07
77052;SHT30;65980;44.898;8.602;2023-04-03T06:49:03;9.28;67.49
77052;SHT30;65980;44.898;8.602;2023-04-03T06:52:08;9.42;67.17
77052;SHT30;65980;44.898;8.602;2023-04-03T06:55:13;9.53;67.31
77052;SHT30;65980;44.898;8.602;2023-04-03T06:58:16;9.53;67.75
77052;SHT30;65980;44.898;8.602;2023-04-03T07:01:21;9.82;66.74
77052;SHT30;65980;44.898;8.602;2023-04-03T07:04:26;9.97;66.21
77052;SHT30;65980;44.898;8.602;2023-04-03T07:07:30;10.07;66.53
77052;SHT30;65980;44.898;8.602;2023-04-03T07:10:49;10.10;67.06
77052;SHT30;65980;44.898;8.602;2023-04-03T07:13:53;10.24;66.52
77052;SHT30;65980;44.898;8.602;2023-04-03T07:16:57;10.39;66.29
77052;SHT30;65980;44.898;8.602;2023-04-03T07:20:02;10.58;65.98
77052;SHT30;65980;44.898;8.602;2023-04-03T07:23:09;10.72;65.42
77052;SHT30;65980;44.898;8.602;2023-04-03T07:26:14;10.86;64.72
77052;SHT30;65980;44.898;8.602;2023-04-03T07:29:21;11.08;63.36
77052;SHT30;65980;44.898;8.602;2023-04-03T07:32:29;11.28;63.41
77052;SHT30;65980;44.898;8.602;2023-04-03T07:35:35;11.48;61.44
77052;SHT30;65980;44.898;8.602;2023-04-03T07:38:40;11.76;61.64
77052;SHT30;65980;44.898;8.602;2023-04-03T07:46:04;12.03;61.07
77052;SHT30;65980;44.898;8.602;2023-04-03T07:53:41;12.10;57.60
77052;SHT30;65980;44.898;8.602;2023-04-03T07:56:46;12.29;57.78
77052;SHT30;65980;44.898;8.602;2023-04-03T07:59:56;12.70;58.84
77052;SHT30;65980;44.898;8.602;2023-04-03T08:03:05;13.14;57.22
77052;SHT30;65980;44.898;8.602;2023-04-03T08:06:16;13.27;55.36
77052;SHT30;65980;44.898;8.602;2023-04-03T08:09:21;13.55;55.06
77052;SHT30;65980;44.898;8.602;2023-04-03T08:12:26;13.87;54.89
77052;SHT30;65980;44.898;8.602;2023-04-03T08:15:37;14.07;52.70
77052;SHT30;65980;44.898;8.602;2023-04-03T08:18:48;13.76;53.11
77052;SHT30;65980;44.898;8.602;2023-04-03T08:21:55;13.94;52.27
77052;SHT30;65980;44.898;8.602;2023-04-03T08:25:02;14.01;49.44
77052;SHT30;65980;44.898;8.602;2023-04-03T08:28:11;13.91;48.97
77052;SHT30;65980;44.898;8.602;2023-04-03T08:31:17;14.17;47.62
77052;SHT30;65980;44.898;8.602;2023-04-03T08:34:22;14.86;47.64
77052;SHT30;65980;44.898;8.602;2023-04-03T08:37:26;14.87;45.82
77052;SHT30;65980;44.898;8.602;2023-04-03T08:40:30;15.00;46.24
77052;SHT30;65980;44.898;8.602;2023-04-03T08:43:46;14.89;45.33
77052;SHT30;65980;44.898;8.602;2023-04-03T08:50:28;15.31;43.17
77052;SHT30;65980;44.898;8.602;2023-04-03T08:53:34;15.91;42.78
77052;SHT30;65980;44.898;8.602;2023-04-03T08:56:39;15.87;41.33
77052;SHT30;65980;44.898;8.602;2023-04-03T08:59:45;15.94;43.06
77052;SHT30;65980;44.898;8.602;2023-04-03T09:02:51;16.22;44.09
77052;SHT30;65980;44.898;8.602;2023-04-03T09:12:49;17.17;42.91
77052;SHT30;65980;44.898;8.602;2023-04-03T09:15:56;18.76;40.49
77052;SHT30;65980;44.898;8.602;2023-04-03T09:19:36;19.51;38.87
77052;SHT30;65980;44.898;8.602;2023-04-03T09:22:32;22.57;34.28
77052;SHT30;65980;44.898;8.602;2023-04-03T09:25:36;24.23;32.41
77052;SHT30;65980;44.898;8.602;2023-04-03T09:28:41;25.70;30.02
77052;SHT30;65980;44.898;8.602;2023-04-03T09:31:47;25.77;28.52
77052;SHT30;65980;44.898;8.602;2023-04-03T09:34:54;25.79;28.03
77052;SHT30;65980;44.898;8.602;2023-04-03T09:41:16;26.20;29.06
77052;SHT30;65980;44.898;8.602;2023-04-03T09:44:26;28.43;26.30
77052;SHT30;65980;44.898;8.602;2023-04-03T09:55:33;23.09;34.63
77052;SHT30;65980;44.898;8.602;2023-04-03T09:58:53;21.99;36.21
77052;SHT30;65980;44.898;8.602;2023-04-03T10:05:39;20.92;36.54
77052;SHT30;65980;44.898;8.602;2023-04-03T10:08:44;21.49;37.44
77052;SHT30;65980;44.898;8.602;2023-04-03T10:16:38;20.27;39.08
77052;SHT30;65980;44.898;8.602;2023-04-03T10:20:08;20.13;39.62
77052;SHT30;65980;44.898;8.602;2023-04-03T10:23:19;19.76;40.13
77052;SHT30;65980;44.898;8.602;2023-04-03T10:52:17;21.72;39.94
77052;SHT30;65980;44.898;8.602;2023-04-03T10:55:35;21.99;38.09
77052;SHT30;65980;44.898;8.602;2023-04-03T10:58:44;22.73;37.02
77052;SHT30;65980;44.898;8.602;2023-04-03T11:10:45;22.72;37.62
77052;SHT30;65980;44.898;8.602;2023-04-03T11:22:45;22.10;37.34
77052;SHT30;65980;44.898;8.602;2023-04-03T11:25:39;22.06;38.71
77052;SHT30;65980;44.898;8.602;2023-04-03T11:41:31;21.71;38.20
77052;SHT30;65980;44.898;8.602;2023-04-03T11:48:50;20.73;39.16
77052;SHT30;65980;44.898;8.602;2023-04-03T11:56:03;21.55;38.69
77052;SHT30;65980;44.898;8.602;2023-04-03T12:24:01;21.45;36.96
77052;SHT30;65980;44.898;8.602;2023-04-03T12:27:47;20.56;37.28
77052;SHT30;65980;44.898;8.602;2023-04-03T12:31:38;20.93;38.65
77052;SHT30;65980;44.898;8.602;2023-04-03T12:38:41;21.58;38.10
77052;SHT30;65980;44.898;8.602;2023-04-03T12:49:37;20.93;39.53
77052;SHT30;65980;44.898;8.602;2023-04-03T13:00:36;20.89;37.33
77052;SHT30;65980;44.898;8.602;2023-04-03T13:04:02;21.15;37.69
77052;SHT30;65980;44.898;8.602;2023-04-03T13:07:23;21.26;35.81
77052;SHT30;65980;44.898;8.602;2023-04-03T13:11:08;21.41;34.52
77052;SHT30;65980;44.898;8.602;2023-04-03T13:14:39;20.49;32.63
77052;SHT30;65980;44.898;8.602;2023-04-03T13:17:48;21.24;34.81
77052;SHT30;65980;44.898;8.602;2023-04-03T13:20:59;21.27;34.01
77052;SHT30;65980;44.898;8.602;2023-04-03T13:24:05;20.69;35.07
77052;SHT30;65980;44.898;8.602;2023-04-03T13:27:09;21.42;35.17
77052;SHT30;65980;44.898;8.602;2023-04-03T13:30:26;20.99;35.28
77052;SHT30;65980;44.898;8.602;2023-04-03T13:33:38;21.35;34.79
77052;SHT30;65980;44.898;8.602;2023-04-03T13:36:55;20.83;34.14
77052;SHT30;65980;44.898;8.602;2023-04-03T13:40:12;20.49;35.77
77052;SHT30;65980;44.898;8.602;2023-04-03T13:43:22;20.06;34.59
77052;SHT30;65980;44.898;8.602;2023-04-03T13:46:29;20.79;35.25
77052;SHT30;65980;44.898;8.602;2023-04-03T13:52:42;20.34;37.02
77052;SHT30;65980;44.898;8.602;2023-04-03T13:59:18;20.67;38.74
77052;SHT30;65980;44.898;8.602;2023-04-03T14:06:16;20.55;37.10
77052;SHT30;65980;44.898;8.602;2023-04-03T14:09:27;20.61;37.58
77052;SHT30;65980;44.898;8.602;2023-04-03T14:12:37;20.85;36.80
77052;SHT30;65980;44.898;8.602;2023-04-03T14:15:44;20.71;37.29
77052;SHT30;65980;44.898;8.602;2023-04-03T14:22:31;21.34;37.80
77052;SHT30;65980;44.898;8.602;2023-04-03T14:29:04;21.26;37.77
77052;SHT30;65980;44.898;8.602;2023-04-03T14:32:17;21.61;35.65
77052;SHT30;65980;44.898;8.602;2023-04-03T14:35:22;21.42;35.96
77052;SHT30;65980;44.898;8.602;2023-04-03T14:45:33;21.26;37.00
77052;SHT30;65980;44.898;8.602;2023-04-03T14:48:39;21.65;36.25
77052;SHT30;65980;44.898;8.602;2023-04-03T14:51:43;20.65;35.84
77052;SHT30;65980;44.898;8.602;2023-04-03T14:54:51;20.23;37.32
77052;SHT30;65980;44.898;8.602;2023-04-03T14:58:05;20.65;36.88
77052;SHT30;65980;44.898;8.602;2023-04-03T15:01:13;20.82;38.07
77052;SHT30;65980;44.898;8.602;2023-04-03T15:04:22;20.67;37.51
77052;SHT30;65980;44.898;8.602;2023-04-03T15:07:36;21.02;36.23
77052;SHT30;65980;44.898;8.602;2023-04-03T15:10:41;21.32;35.11
77052;SHT30;65980;44.898;8.602;2023-04-03T15:13:45;21.08;33.85
77052;SHT30;65980;44.898;8.602;2023-04-03T15:16:53;20.75;36.79
77052;SHT30;65980;44.898;8.602;2023-04-03T15:19:58;20.40;37.74
77052;SHT30;65980;44.898;8.602;2023-04-03T15:23:02;20.71;35.75
77052;SHT30;65980;44.898;8.602;2023-04-03T15:26:07;20.49;35.47
77052;SHT30;65980;44.898;8.602;2023-04-03T15:29:11;19.93;37.41
77052;SHT30;65980;44.898;8.602;2023-04-03T15:32:22;19.94;36.68
77052;SHT30;65980;44.898;8.602;2023-04-03T15:35:26;19.98;37.27
77052;SHT30;65980;44.898;8.602;2023-04-03T15:38:30;21.28;35.46
77052;SHT30;65980;44.898;8.602;2023-04-03T15:45:35;20.53;37.18
77052;SHT30;65980;44.898;8.602;2023-04-03T15:48:40;20.82;37.33
77052;SHT30;65980;44.898;8.602;2023-04-03T15:52:03;20.87;37.68
77052;SHT30;65980;44.898;8.602;2023-04-03T15:55:07;20.37;38.34
77052;SHT30;65980;44.898;8.602;2023-04-03T15:58:14;20.30;38.51
77052;SHT30;65980;44.898;8.602;2023-04-03T16:01:26;19.94;39.42
77052;SHT30;65980;44.898;8.602;2023-04-03T16:04:49;19.80;39.43
77052;SHT30;65980;44.898;8.602;2023-04-03T16:08:03;19.31;40.32
77052;SHT30;65980;44.898;8.602;2023-04-03T16:11:13;19.23;40.98
77052;SHT30;65980;44.898;8.602;2023-04-03T16:14:21;19.24;42.35
77052;SHT30;65980;44.898;8.602;2023-04-03T16:17:28;18.75;43.91
77052;SHT30;65980;44.898;8.602;2023-04-03T16:20:41;18.76;44.01
77052;SHT30;65980;44.898;8.602;2023-04-03T16:27:28;18.30;45.28
77052;SHT30;65980;44.898;8.602;2023-04-03T16:30:39;18.08;45.30
77052;SHT30;65980;44.898;8.602;2023-04-03T16:34:00;18.00;45.77
77052;SHT30;65980;44.898;8.602;2023-04-03T16:37:06;17.93;45.90
77052;SHT30;65980;44.898;8.602;2023-04-03T16:44:27;18.08;44.92
77052;SHT30;65980;44.898;8.602;2023-04-03T16:47:34;17.90;44.50
77052;SHT30;65980;44.898;8.602;2023-04-03T16:50:41;17.70;44.74
77052;SHT30;65980;44.898;8.602;2023-04-03T16:53:45;17.49;44.67
77052;SHT30;65980;44.898;8.602;2023-04-03T16:56:53;17.55;44.85
77052;SHT30;65980;44.898;8.602;2023-04-03T17:00:08;17.38;45.11
77052;SHT30;65980;44.898;8.602;2023-04-03T17:03:16;17.23;45.52
77052;SHT30;65980;44.898;8.602;2023-04-03T17:06:21;17.03;46.20
77052;SHT30;65980;44.898;8.602;2023-04-03T17:09:32;17.14;45.98
77052;SHT30;65980;44.898;8.602;2023-04-03T17:12:46;17.20;45.59
77052;SHT30;65980;44.898;8.602;2023-04-03T17:15:51;17.21;45.82
77052;SHT30;65980;44.898;8.602;2023-04-03T17:19:02;16.99;46.63
77052;SHT30;65980;44.898;8.602;2023-04-03T17:26:49;16.93;47.22
77052;SHT30;65980;44.898;8.602;2023-04-03T17:30:22;16.53;47.58
77052;SHT30;65980;44.898;8.602;2023-04-03T17:33:29;16.66;47.07
77052;SHT30;65980;44.898;8.602;2023-04-03T17:36:37;16.40;47.88
77052;SHT30;65980;44.898;8.602;2023-04-03T17:40:01;16.16;48.64
77052;SHT30;65980;44.898;8.602;2023-04-03T17:43:05;16.10;48.75
77052;SHT30;65980;44.898;8.602;2023-04-03T17:46:14;15.94;49.60
77052;SHT30;65980;44.898;8.602;2023-04-03T17:49:21;15.99;49.56
77052;SHT30;65980;44.898;8.602;2023-04-03T17:52:29;15.89;50.70
77052;SHT30;65980;44.898;8.602;2023-04-03T17:55:36;15.69;51.74
77052;SHT30;65980;44.898;8.602;2023-04-03T17:58:41;15.44;52.87
77052;SHT30;65980;44.898;8.602;2023-04-03T18:05:19;15.46;53.35
77052;SHT30;65980;44.898;8.602;2023-04-03T18:08:47;15.48;53.87
77052;SHT30;65980;44.898;8.602;2023-04-03T18:12:22;15.67;53.29
77052;SHT30;65980;44.898;8.602;2023-04-03T18:19:44;15.17;54.80
77052;SHT30;65980;44.898;8.602;2023-04-03T18:26:28;14.91;55.28
77052;SHT30;65980;44.898;8.602;2023-04-03T18:29:39;14.77;55.67
77052;SHT30;65980;44.898;8.602;2023-04-03T18:32:46;14.86;55.47
77052;SHT30;65980;44.898;8.602;2023-04-03T18:35:51;14.84;55.31
77052;SHT30;65980;44.898;8.602;2023-04-03T18:38:58;14.87;54.79
77052;SHT30;65980;44.898;8.602;2023-04-03T18:42:10;14.89;54.91
77052;SHT30;65980;44.898;8.602;2023-04-03T18:45:22;14.73;55.35
77052;SHT30;65980;44.898;8.602;2023-04-03T18:48:34;14.52;55.01
77052;SHT30;65980;44.898;8.602;2023-04-03T18:51:39;14.37;55.21
77052;SHT30;65980;44.898;8.602;2023-04-03T18:54:43;14.41;55.01
77052;SHT30;65980;44.898;8.602;2023-04-03T18:57:48;14.34;54.94
77052;SHT30;65980;44.898;8.602;2023-04-03T19:00:53;14.48;53.99
77052;SHT30;65980;44.898;8.602;2023-04-03T19:04:00;14.24;54.17
77052;SHT30;65980;44.898;8.602;2023-04-03T19:07:03;14.21;54.21
77052;SHT30;65980;44.898;8.602;2023-04-03T19:10:10;14.13;52.84
77052;SHT30;65980;44.898;8.602;2023-04-03T19:13:20;14.07;53.17
77052;SHT30;65980;44.898;8.602;2023-04-03T19:16:27;14.06;50.93
77052;SHT30;65980;44.898;8.602;2023-04-03T19:19:32;14.06;50.56
77052;SHT30;65980;44.898;8.602;2023-04-03T19:22:37;13.94;49.00
77052;SHT30;65980;44.898;8.602;2023-04-03T19:29:14;13.96;47.93
77052;SHT30;65980;44.898;8.602;2023-04-03T19:32:18;13.77;47.87
77052;SHT30;65980;44.898;8.602;2023-04-03T19:35:24;13.69;47.47
77052;SHT30;65980;44.898;8.602;2023-04-03T19:38:41;13.67;47.04
77052;SHT30;65980;44.898;8.602;2023-04-03T19:41:45;13.45;46.88
77052;SHT30;65980;44.898;8.602;2023-04-03T19:44:55;13.46;46.57
77052;SHT30;65980;44.898;8.602;2023-04-03T19:48:01;13.42;46.16
77052;SHT30;65980;44.898;8.602;2023-04-03T19:51:05;13.38;45.99
77052;SHT30;65980;44.898;8.602;2023-04-03T19:54:12;13.56;45.31
77052;SHT30;65980;44.898;8.602;2023-04-03T19:57:16;13.39;45.85
77052;SHT30;65980;44.898;8.602;2023-04-03T20:00:22;13.38;45.43
77052;SHT30;65980;44.898;8.602;2023-04-03T20:03:26;13.10;45.88
77052;SHT30;65980;44.898;8.602;2023-04-03T20:06:31;13.15;45.75
77052;SHT30;65980;44.898;8.602;2023-04-03T20:09:36;13.27;45.69
77052;SHT30;65980;44.898;8.602;2023-04-03T20:12:40;12.90;46.34
77052;SHT30;65980;44.898;8.602;2023-04-03T20:15:43;12.97;46.31
77052;SHT30;65980;44.898;8.602;2023-04-03T20:18:51;13.00;46.18
77052;SHT30;65980;44.898;8.602;2023-04-03T20:21:59;12.83;46.96
77052;SHT30;65980;44.898;8.602;2023-04-03T20:25:03;13.12;46.02
77052;SHT30;65980;44.898;8.602;2023-04-03T20:28:13;12.93;46.35
77052;SHT30;65980;44.898;8.602;2023-04-03T20:31:22;12.92;46.31
77052;SHT30;65980;44.898;8.602;2023-04-03T20:34:31;12.84;46.13
77052;SHT30;65980;44.898;8.602;2023-04-03T20:37:36;12.75;46.72
77052;SHT30;65980;44.898;8.602;2023-04-03T20:40:42;13.04;46.11
77052;SHT30;65980;44.898;8.602;2023-04-03T20:43:47;13.00;46.45
77052;SHT30;65980;44.898;8.602;2023-04-03T20:46:51;12.93;46.47
77052;SHT30;65980;44.898;8.602;2023-04-03T20:49:59;12.94;46.30
77052;SHT30;65980;44.898;8.602;2023-04-03T20:53:07;12.82;47.01
77052;SHT30;65980;44.898;8.602;2023-04-03T20:56:12;12.67;46.85
77052;SHT30;65980;44.898;8.602;2023-04-03T20:59:17;12.75;46.76
77052;SHT30;65980;44.898;8.602;2023-04-03T21:02:22;12.69;46.91
77052;SHT30;65980;44.898;8.602;2023-04-03T21:05:27;12.57;47.22
77052;SHT30;65980;44.898;8.602;2023-04-03T21:22:09;12.69;46.35
77052;SHT30;65980;44.898;8.602;2023-04-03T21:25:15;12.84;46.11
77052;SHT30;65980;44.898;8.602;2023-04-03T21:28:26;12.97;45.87
77052;SHT30;65980;44.898;8.602;2023-04-03T21:34:55;12.87;45.93
77052;SHT30;65980;44.898;8.602;2023-04-03T21:38:06;12.82;45.82
77052;SHT30;65980;44.898;8.602;2023-04-03T21:41:12;12.89;46.61
77052;SHT30;65980;44.898;8.602;2023-04-03T21:44:17;12.80;45.76
77052;SHT30;65980;44.898;8.602;2023-04-03T21:47:21;12.67;45.75
77052;SHT30;65980;44.898;8.602;2023-04-03T21:50:28;12.65;45.79
77052;SHT30;65980;44.898;8.602;2023-04-03T21:53:32;12.59;45.28
77052;SHT30;65980;44.898;8.602;2023-04-03T21:56:37;12.59;45.13
77052;SHT30;65980;44.898;8.602;2023-04-03T21:59:41;12.42;45.44
77052;SHT30;65980;44.898;8.602;2023-04-03T22:02:46;12.35;45.02
77052;SHT30;65980;44.898;8.602;2023-04-03T22:05:51;12.48;44.82
77052;SHT30;65980;44.898;8.602;2023-04-03T22:08:57;12.39;44.62
77052;SHT30;65980;44.898;8.602;2023-04-03T22:12:04;12.37;44.23
77052;SHT30;65980;44.898;8.602;2023-04-03T22:15:10;12.18;44.32
77052;SHT30;65980;44.898;8.602;2023-04-03T22:18:15;12.20;44.42
77052;SHT30;65980;44.898;8.602;2023-04-03T22:21:21;12.05;44.12
77052;SHT30;65980;44.898;8.602;2023-04-03T22:24:26;12.08;44.12
77052;SHT30;65980;44.898;8.602;2023-04-03T22:27:31;11.89;44.16
77052;SHT30;65980;44.898;8.602;2023-04-03T22:30:37;11.97;44.42
77052;SHT30;65980;44.898;8.602;2023-04-03T22:33:52;11.82;44.49
77052;SHT30;65980;44.898;8.602;2023-04-03T22:36:58;11.87;44.67
77052;SHT30;65980;44.898;8.602;2023-04-03T22:40:03;11.45;45.38
77052;SHT30;65980;44.898;8.602;2023-04-03T22:43:08;11.63;45.55
77052;SHT30;65980;44.898;8.602;2023-04-03T22:46:13;11.55;45.79
77052;SHT30;65980;44.898;8.602;2023-04-03T22:49:20;11.42;46.10
77052;SHT30;65980;44.898;8.602;2023-04-03T22:52:26;11.36;46.08
77052;SHT30;65980;44.898;8.602;2023-04-03T22:55:29;11.31;46.39
77052;SHT30;65980;44.898;8.602;2023-04-03T22:58:34;11.32;46.36
77052;SHT30;65980;44.898;8.602;2023-04-03T23:01:47;11.34;46.59
77052;SHT30;65980;44.898;8.602;2023-04-03T23:04:55;11.43;45.65
77052;SHT30;65980;44.898;8.602;2023-04-03T23:08:01;11.46;45.71
77052;SHT30;65980;44.898;8.602;2023-04-03T23:11:07;11.31;46.01
77052;SHT30;65980;44.898;8.602;2023-04-03T23:14:12;11.35;45.94
77052;SHT30;65980;44.898;8.602;2023-04-03T23:17:23;11.11;46.28
77052;SHT30;65980;44.898;8.602;2023-04-03T23:20:27;11.31;46.05
77052;SHT30;65980;44.898;8.602;2023-04-03T23:23:31;11.31;45.88
77052;SHT30;65980;44.898;8.602;2023-04-03T23:26:35;10.94;46.73
77052;SHT30;65980;44.898;8.602;2023-04-03T23:29:40;11.18;46.50
77052;SHT30;65980;44.898;8.602;2023-04-03T23:32:47;11.06;46.83
77052;SHT30;65980;44.898;8.602;2023-04-03T23:35:53;10.93;47.83
77052;SHT30;65980;44.898;8.602;2023-04-03T23:38:57;10.89;47.66
77052;SHT30;65980;44.898;8.602;2023-04-03T23:42:01;11.17;47.65